Time;durP1;ratioP1;P1;durP2;ratioP2;P2;SDS_P1;SDS_P2;PMS_P1;PMS_P2;Temp;Humidity;BMP_temperature;BMP_pressure;BME280_temperature;BME280_humidity;BME280_pressure;Samples;Min_cycle;Max_cycle;Signal;HPM_P1;HPM_P2
2023/01/21 00:01:21;;;;;;;;;;;0.10;99.90;;;;;;5054528;28;19923;-78
2023/01/21 00:03:47;;;;;;;;;;;0.20;99.90;;;;;;5047483;28;19905;-78
2023/01/21 00:06:16;;;;;;;;;;;0.10;99.90;;;;;;5046641;28;20305;-79
2023/01/21 00:08:42;;;;;;;;;;;0.10;99.90;;;;;;5045426;28;19935;-79
2023/01/21 00:11:10;;;;;;;;;;;0.20;99.90;;;;;;5033149;28;19905;-79
2023/01/21 00:13:36;;;;;;;;;;;0.10;99.90;;;;;;5039691;28;19908;-79
2023/01/21 00:16:03;;;;;;;;;;;0.20;99.90;;;;;;5037946;28;19905;-79
2023/01/21 00:18:29;;;;;;;;;;;0.20;99.90;;;;;;5030723;28;19905;-79
2023/01/21 00:20:55;;;;;;;;;;;0.20;99.90;;;;;;5044859;28;19992;-80
2023/01/21 00:23:21;;;;;;;;;;;0.10;99.90;;;;;;5066367;28;19904;-80
2023/01/21 00:25:47;;;;;;;;;;;0.10;99.90;;;;;;5051646;28;19915;-79
2023/01/21 00:28:13;;;;;;;;;;;0.10;99.90;;;;;;5049874;28;19931;-79
2023/01/21 00:30:40;;;;;;;;;;;0.20;99.90;;;;;;5052718;28;19909;-78
2023/01/21 00:33:06;;;;;;;;;;;0.10;99.90;;;;;;5055053;28;19911;-78
2023/01/21 00:35:32;;;;;;;;;;;0.20;99.90;;;;;;5040394;28;19909;-80
2023/01/21 00:37:58;;;;;;;;;;;0.10;99.90;;;;;;5053412;28;20278;-79
2023/01/21 00:40:25;;;;;;;;;;;0.20;99.90;;;;;;5051426;28;19904;-80
2023/01/21 00:42:51;;;;;;;;;;;0.10;99.90;;;;;;5039051;28;19913;-79
2023/01/21 00:45:17;;;;;;;;;;;0.20;99.90;;;;;;5055002;28;19909;-80
2023/01/21 00:47:43;;;;;;;;;;;0.20;99.90;;;;;;5052949;28;19920;-80
2023/01/21 00:50:09;;;;;;;;;;;0.10;99.90;;;;;;5043160;28;20353;-79
2023/01/21 00:52:35;;;;;;;;;;;0.10;99.90;;;;;;5055430;28;19908;-79
2023/01/21 00:55:01;;;;;;;;;;;0.20;99.90;;;;;;5054887;28;19912;-79
2023/01/21 00:57:27;;;;;;;;;;;0.20;99.90;;;;;;5054968;28;19905;-79
2023/01/21 00:59:53;;;;;;;;;;;0.20;99.90;;;;;;5053278;28;19978;-77
2023/01/21 01:02:19;;;;;;;;;;;0.10;99.90;;;;;;5054767;28;19912;-81
2023/01/21 01:04:45;;;;;;;;;;;0.20;99.90;;;;;;5055211;28;19905;-81
2023/01/21 01:07:11;;;;;;;;;;;0.20;99.90;;;;;;5054154;28;19915;-81
2023/01/21 01:09:37;;;;;;;;;;;0.20;99.90;;;;;;5053795;28;19904;-80
2023/01/21 01:12:03;;;;;;;;;;;0.20;99.90;;;;;;5054160;28;19962;-80
2023/01/21 01:14:29;;;;;;;;;;;0.20;99.90;;;;;;5055142;28;19912;-80
2023/01/21 01:16:55;;;;;;;;;;;0.20;99.90;;;;;;5045870;28;19901;-78
2023/01/21 01:19:21;;;;;;;;;;;0.20;99.90;;;;;;5034957;28;20333;-80
2023/01/21 01:21:47;;;;;;;;;;;0.10;99.90;;;;;;5029690;28;19905;-79
2023/01/21 01:24:13;;;;;;;;;;;0.10;99.90;;;;;;5030141;28;20185;-79
2023/01/21 01:26:39;;;;;;;;;;;0.10;99.90;;;;;;5019158;28;20337;-78
2023/01/21 01:29:05;;;;;;;;;;;0.10;99.90;;;;;;5034913;28;19927;-79
2023/01/21 01:31:32;;;;;;;;;;;0.10;99.90;;;;;;5035843;28;20353;-79
2023/01/21 01:33:58;;;;;;;;;;;0.20;99.90;;;;;;5034509;28;19912;-81
2023/01/21 01:36:24;;;;;;;;;;;0.20;99.90;;;;;;5033742;28;19909;-80
2023/01/21 01:38:50;;;;;;;;;;;0.20;99.90;;;;;;5040510;28;19919;-80
2023/01/21 01:41:18;;;;;;;;;;;0.20;99.90;;;;;;5053223;28;19905;-79
2023/01/21 01:43:56;;;;;;;;;;;0.10;99.90;;;;;;5053454;28;19912;-80
2023/01/21 01:46:22;;;;;;;;;;;0.10;99.90;;;;;;5052443;28;20297;-80
2023/01/21 01:48:51;;;;;;;;;;;0.20;99.90;;;;;;5053403;28;19908;-80
2023/01/21 01:51:18;;;;;;;;;;;0.10;99.90;;;;;;5053012;28;19916;-80
2023/01/21 01:53:45;;;;;;;;;;;0.10;99.90;;;;;;5053900;28;19916;-80
2023/01/21 01:56:11;;;;;;;;;;;0.20;99.90;;;;;;5052560;28;19905;-80
2023/01/21 01:58:38;;;;;;;;;;;0.20;99.90;;;;;;5052998;28;19923;-80
2023/01/21 02:01:04;;;;;;;;;;;0.20;99.90;;;;;;5051705;28;20260;-78
2023/01/21 02:03:44;;;;;;;;;;;0.20;99.90;;;;;;5053887;28;19908;-81
2023/01/21 02:06:14;;;;;;;;;;;0.20;99.90;;;;;;5054984;28;19909;-80
2023/01/21 02:08:41;;;;;;;;;;;0.10;99.90;;;;;;5033915;28;20341;-81
2023/01/21 02:11:14;;;;;;;;;;;0.10;99.90;;;;;;5047796;28;19915;-82
2023/01/21 02:13:41;;;;;;;;;;;0.10;99.90;;;;;;5052724;28;19911;-80
2023/01/21 02:16:07;;;;;;;;;;;0.10;99.90;;;;;;5052084;28;19901;-81
2023/01/21 02:18:33;;;;;;;;;;;0.10;99.90;;;;;;5052892;28;20270;-81
2023/01/21 02:21:18;;;;;;;;;;;0.20;99.90;;;;;;5045548;28;19905;-81
2023/01/21 02:23:50;;;;;;;;;;;0.10;99.90;;;;;;5034407;28;20338;-82
2023/01/21 02:26:19;;;;;;;;;;;0.10;99.90;;;;;;5033196;28;20276;-81
2023/01/21 02:28:45;;;;;;;;;;;0.10;99.90;;;;;;5034249;28;20346;-82
2023/01/21 02:31:11;;;;;;;;;;;0.10;99.90;;;;;;5035726;28;19916;-84
2023/01/21 02:33:43;;;;;;;;;;;0.00;99.90;;;;;;5034647;28;19909;-82
2023/01/21 02:36:12;;;;;;;;;;;0.00;99.90;;;;;;5049647;28;19911;-83
2023/01/21 02:38:43;;;;;;;;;;;0.00;99.90;;;;;;5043225;28;20091;-83
2023/01/21 02:41:20;;;;;;;;;;;0.00;99.90;;;;;;5053538;28;20376;-82
2023/01/21 02:43:46;;;;;;;;;;;0.00;99.90;;;;;;5053635;28;19915;-82
2023/01/21 02:46:16;;;;;;;;;;;0.00;99.90;;;;;;5032105;28;19913;-82
2023/01/21 02:49:01;;;;;;;;;;;0.00;99.90;;;;;;5052048;28;19923;-82
2023/01/21 02:51:27;;;;;;;;;;;-0.10;99.90;;;;;;5053309;28;19911;-82
2023/01/21 02:53:53;;;;;;;;;;;-0.10;99.90;;;;;;5051834;28;19908;-81
2023/01/21 02:56:22;;;;;;;;;;;-0.20;99.90;;;;;;5052180;28;19938;-82
2023/01/21 02:58:53;;;;;;;;;;;-0.20;99.90;;;;;;5051463;28;19912;-82
2023/01/21 03:01:19;;;;;;;;;;;-0.20;99.90;;;;;;5033597;28;20030;-81
2023/01/21 03:04:06;;;;;;;;;;;-0.20;99.90;;;;;;5051766;28;20436;-81
2023/01/21 03:06:37;;;;;;;;;;;-0.20;99.90;;;;;;5051578;28;19916;-81
2023/01/21 03:09:12;;;;;;;;;;;-0.20;99.90;;;;;;5047269;28;19916;-79
2023/01/21 03:11:41;;;;;;;;;;;-0.30;99.90;;;;;;5053053;28;19911;-81
2023/01/21 03:17:13;;;;;;;;;;;-0.30;99.90;;;;;;5036578;28;19905;-79
2023/01/21 03:19:41;;;;;;;;;;;-0.40;99.90;;;;;;5050313;28;19905;-82
2023/01/21 03:22:17;;;;;;;;;;;-0.40;99.90;;;;;;5058081;28;19911;-82
2023/01/21 03:24:45;;;;;;;;;;;-0.40;99.90;;;;;;5076053;28;19908;-82
2023/01/21 03:27:13;;;;;;;;;;;-0.40;99.90;;;;;;5072950;28;19915;-84
2023/01/21 03:29:41;;;;;;;;;;;-0.50;99.90;;;;;;5066947;28;19913;-85
2023/01/21 03:32:08;;;;;;;;;;;-0.50;99.90;;;;;;5058405;28;19901;-85
2023/01/21 03:34:36;;;;;;;;;;;-0.60;99.90;;;;;;5061802;28;20338;-85
2023/01/21 03:37:06;;;;;;;;;;;-0.50;99.90;;;;;;5058439;28;19904;-85
2023/01/21 03:39:54;;;;;;;;;;;-0.60;99.90;;;;;;5052494;28;19905;-86
2023/01/21 03:42:20;;;;;;;;;;;-0.60;99.90;;;;;;5067891;28;20160;-86
2023/01/21 03:44:46;;;;;;;;;;;-0.70;99.90;;;;;;5052335;28;19905;-86
2023/01/21 03:47:11;;;;;;;;;;;-0.70;99.90;;;;;;5052439;28;19959;-85
2023/01/21 03:49:40;;;;;;;;;;;-0.60;99.90;;;;;;5052209;28;19909;-85
2023/01/21 03:52:07;;;;;;;;;;;-0.60;99.90;;;;;;5052801;28;19905;-85
2023/01/21 03:54:33;;;;;;;;;;;-0.60;99.90;;;;;;5033700;28;19909;-84
2023/01/21 03:56:59;;;;;;;;;;;-0.60;99.90;;;;;;5039845;28;19904;-86
2023/01/21 03:59:25;;;;;;;;;;;-0.60;99.90;;;;;;5050533;28;20035;-85
2023/01/21 04:01:51;;;;;;;;;;;-0.60;99.90;;;;;;5052698;28;20008;-86
2023/01/21 04:04:17;;;;;;;;;;;-0.60;99.90;;;;;;5052651;28;19976;-85
2023/01/21 04:06:43;;;;;;;;;;;-0.60;99.90;;;;;;5037979;28;19908;-86
2023/01/21 04:09:09;;;;;;;;;;;-0.60;99.90;;;;;;5037783;28;19948;-80
2023/01/21 04:11:35;;;;;;;;;;;-0.60;99.90;;;;;;5033595;28;20334;-86
2023/01/21 04:14:01;;;;;;;;;;;-0.60;99.90;;;;;;5037735;28;19905;-85
2023/01/21 04:16:27;;;;;;;;;;;-0.70;99.90;;;;;;5047291;28;19955;-86
2023/01/21 04:18:54;;;;;;;;;;;-0.70;99.90;;;;;;5057592;28;19917;-86
2023/01/21 04:21:20;;;;;;;;;;;-0.70;99.90;;;;;;5054644;28;20345;-86
2023/01/21 04:23:46;;;;;;;;;;;-0.80;99.90;;;;;;5056600;28;19911;-86
2023/01/21 04:26:12;;;;;;;;;;;-0.80;99.90;;;;;;5069814;28;19955;-86
2023/01/21 04:28:38;;;;;;;;;;;-0.90;99.90;;;;;;5059158;28;19915;-85
2023/01/21 04:31:04;;;;;;;;;;;-0.90;99.90;;;;;;5056736;28;19932;-86
2023/01/21 04:33:30;;;;;;;;;;;-0.90;99.90;;;;;;5058928;28;19908;-85
2023/01/21 04:35:57;;;;;;;;;;;-0.90;99.90;;;;;;5050704;28;19999;-85
2023/01/21 04:38:23;;;;;;;;;;;-1.00;99.90;;;;;;5051885;28;20373;-86
2023/01/21 04:40:49;;;;;;;;;;;-1.00;99.90;;;;;;5057737;28;19940;-85
2023/01/21 04:43:15;;;;;;;;;;;-1.00;99.90;;;;;;5057007;28;20380;-86
2023/01/21 04:45:41;;;;;;;;;;;-1.10;99.90;;;;;;5056865;28;19909;-86
2023/01/21 04:48:07;;;;;;;;;;;-1.10;99.90;;;;;;5039613;28;19913;-85
2023/01/21 04:50:33;;;;;;;;;;;-1.20;99.90;;;;;;5070829;28;19909;-85
2023/01/21 04:52:59;;;;;;;;;;;-1.20;99.90;;;;;;5062437;28;20457;-85
2023/01/21 04:55:25;;;;;;;;;;;-1.30;99.90;;;;;;5055469;28;19916;-86
2023/01/21 04:57:51;;;;;;;;;;;-1.40;99.90;;;;;;5057288;28;19909;-85
2023/01/21 05:00:17;;;;;;;;;;;-1.40;99.90;;;;;;5053951;28;19920;-85
2023/01/21 05:02:43;;;;;;;;;;;-1.50;99.90;;;;;;5055709;28;20420;-85
2023/01/21 05:05:09;;;;;;;;;;;-1.50;99.90;;;;;;5054726;28;20000;-84
2023/01/21 05:07:35;;;;;;;;;;;-1.60;99.90;;;;;;5055549;28;20358;-84
2023/01/21 05:10:01;;;;;;;;;;;-1.60;99.90;;;;;;5054435;28;19913;-85
2023/01/21 05:12:27;;;;;;;;;;;-1.60;99.90;;;;;;5054807;28;19909;-85
2023/01/21 05:14:53;;;;;;;;;;;-1.70;99.90;;;;;;5055631;28;19920;-85
2023/01/21 05:17:20;;;;;;;;;;;-1.70;99.90;;;;;;5053244;28;20277;-85
2023/01/21 05:19:46;;;;;;;;;;;-1.80;99.90;;;;;;5053765;28;20277;-84
2023/01/21 05:22:12;;;;;;;;;;;-1.80;99.90;;;;;;5054571;28;19931;-84
2023/01/21 05:24:38;;;;;;;;;;;-2.00;99.90;;;;;;5054501;28;20293;-84
2023/01/21 05:27:04;;;;;;;;;;;-2.10;99.90;;;;;;5055157;28;20309;-78
2023/01/21 05:29:30;;;;;;;;;;;-2.10;99.90;;;;;;5053967;28;20285;-84
2023/01/21 05:31:56;;;;;;;;;;;-2.10;99.90;;;;;;5055549;28;20003;-84
2023/01/21 05:34:22;;;;;;;;;;;-2.20;99.90;;;;;;5054875;28;19908;-85
2023/01/21 05:36:48;;;;;;;;;;;-2.30;99.90;;;;;;5056179;28;19915;-85
2023/01/21 05:39:13;;;;;;;;;;;-2.30;99.90;;;;;;5056141;28;19915;-85
2023/01/21 05:41:39;;;;;;;;;;;-2.30;99.90;;;;;;5062839;28;19909;-85
2023/01/21 05:44:07;;;;;;;;;;;-2.40;99.90;;;;;;5070722;28;19936;-81
2023/01/21 05:46:33;;;;;;;;;;;-2.50;99.90;;;;;;5057367;28;19924;-85
2023/01/21 05:48:59;;;;;;;;;;;-2.50;99.90;;;;;;5054701;28;19921;-81
2023/01/21 05:51:25;;;;;;;;;;;-2.50;99.90;;;;;;5054012;28;19970;-85
2023/01/21 05:53:51;;;;;;;;;;;-2.60;99.90;;;;;;5055275;28;20405;-85
2023/01/21 05:56:17;;;;;;;;;;;-2.70;99.90;;;;;;5052498;28;19916;-85
2023/01/21 05:58:43;;;;;;;;;;;-2.70;99.90;;;;;;5054813;28;20317;-85
2023/01/21 06:01:09;;;;;;;;;;;-2.70;99.90;;;;;;5053213;28;19920;-85
2023/01/21 06:03:36;;;;;;;;;;;-2.70;99.90;;;;;;5052412;28;19908;-85
2023/01/21 06:06:03;;;;;;;;;;;-2.70;99.90;;;;;;5055024;28;19909;-85
2023/01/21 06:08:28;;;;;;;;;;;-2.80;99.90;;;;;;5053240;28;19921;-84
2023/01/21 06:10:55;;;;;;;;;;;-2.80;99.90;;;;;;5051117;28;19955;-85
2023/01/21 06:13:21;;;;;;;;;;;-2.80;99.90;;;;;;5051166;28;19909;-84
2023/01/21 06:15:48;;;;;;;;;;;-2.80;99.90;;;;;;5047219;28;19908;-84
2023/01/21 06:18:14;;;;;;;;;;;-2.80;99.90;;;;;;5052856;28;19909;-84
2023/01/21 06:20:40;;;;;;;;;;;-2.80;99.90;;;;;;5051655;28;19916;-84
2023/01/21 06:23:06;;;;;;;;;;;-2.90;99.90;;;;;;5054889;28;20358;-84
2023/01/21 06:25:32;;;;;;;;;;;-2.90;99.90;;;;;;5047568;28;19905;-84
2023/01/21 06:28:00;;;;;;;;;;;-2.90;99.90;;;;;;5051118;28;19919;-85
2023/01/21 06:30:26;;;;;;;;;;;-2.90;99.90;;;;;;5052711;28;20270;-85
2023/01/21 06:32:52;;;;;;;;;;;-2.90;99.90;;;;;;5054280;28;19909;-79
2023/01/21 06:35:18;;;;;;;;;;;-2.90;99.90;;;;;;5051316;28;19913;-84
2023/01/21 06:37:44;;;;;;;;;;;-3.00;99.90;;;;;;5053935;28;19963;-85
2023/01/21 06:40:10;;;;;;;;;;;-3.00;99.90;;;;;;5052643;28;20342;-85
2023/01/21 06:42:36;;;;;;;;;;;-2.90;99.90;;;;;;5053893;28;20361;-85
2023/01/21 06:45:02;;;;;;;;;;;-2.80;99.90;;;;;;5053554;28;20030;-85
2023/01/21 06:47:28;;;;;;;;;;;-2.80;99.90;;;;;;5052918;28;19917;-85
2023/01/21 06:49:54;;;;;;;;;;;-2.80;99.90;;;;;;5048326;28;20330;-85
2023/01/21 06:52:21;;;;;;;;;;;-2.70;99.90;;;;;;5044515;28;19952;-81
2023/01/21 06:54:47;;;;;;;;;;;-2.80;99.90;;;;;;5049776;28;19909;-84
2023/01/21 06:57:13;;;;;;;;;;;-2.80;99.90;;;;;;5040904;28;19908;-84
2023/01/21 06:59:39;;;;;;;;;;;-2.80;99.90;;;;;;5053731;28;20376;-85
2023/01/21 07:02:05;;;;;;;;;;;-2.90;99.90;;;;;;5053911;28;19916;-84
2023/01/21 07:04:31;;;;;;;;;;;-2.90;99.90;;;;;;5053036;28;19909;-85
2023/01/21 07:06:57;;;;;;;;;;;-2.90;99.70;;;;;;5051493;28;19913;-84
2023/01/21 07:09:23;;;;;;;;;;;-3.00;98.30;;;;;;5053283;28;20407;-85
2023/01/21 07:11:49;;;;;;;;;;;-3.00;97.50;;;;;;5058038;28;19916;-86
2023/01/21 07:14:15;;;;;;;;;;;-3.00;97.90;;;;;;5057913;28;19909;-86
2023/01/21 07:16:41;;;;;;;;;;;-3.00;97.50;;;;;;5053962;28;20365;-85
2023/01/21 07:19:08;;;;;;;;;;;-3.00;96.70;;;;;;5055634;28;20381;-85
2023/01/21 07:21:34;;;;;;;;;;;-3.10;96.40;;;;;;5058733;28;19920;-86
2023/01/21 07:24:00;;;;;;;;;;;-3.10;97.00;;;;;;5054844;28;19905;-87
2023/01/21 07:26:26;;;;;;;;;;;-3.10;96.50;;;;;;5059165;28;19928;-81
2023/01/21 07:28:52;;;;;;;;;;;-3.10;96.00;;;;;;5063953;28;19912;-87
2023/01/21 07:31:18;;;;;;;;;;;-3.10;96.30;;;;;;5057719;28;20297;-85
2023/01/21 07:33:44;;;;;;;;;;;-3.10;95.60;;;;;;5054406;28;19909;-87
2023/01/21 07:36:10;;;;;;;;;;;-3.10;94.90;;;;;;5051835;28;19915;-87
2023/01/21 07:38:36;;;;;;;;;;;-3.10;94.10;;;;;;5051987;28;19924;-85
2023/01/21 07:41:02;;;;;;;;;;;-3.10;94.20;;;;;;5053011;28;19911;-88
2023/01/21 07:43:28;;;;;;;;;;;-3.20;93.50;;;;;;5052123;28;20369;-89
2023/01/21 07:45:55;;;;;;;;;;;-3.20;92.90;;;;;;5049640;28;19987;-87
2023/01/21 07:48:21;;;;;;;;;;;-3.10;93.20;;;;;;5048256;28;19912;-87
2023/01/21 07:50:47;;;;;;;;;;;-3.10;92.90;;;;;;5037562;28;20012;-88
2023/01/21 07:53:13;;;;;;;;;;;-3.10;92.90;;;;;;5035395;28;19905;-82
2023/01/21 07:55:39;;;;;;;;;;;-3.20;92.30;;;;;;5053608;28;19907;-86
2023/01/21 07:58:04;;;;;;;;;;;-3.10;92.70;;;;;;5064808;28;19893;-85
2023/01/21 08:00:30;;;;;;;;;;;-3.10;91.00;;;;;;5072523;28;19947;-87
2023/01/21 08:02:57;;;;;;;;;;;-3.10;88.50;;;;;;5060095;28;19920;-86
2023/01/21 08:05:24;;;;;;;;;;;-3.10;88.10;;;;;;5058352;28;19913;-86
2023/01/21 08:07:50;;;;;;;;;;;-3.10;85.70;;;;;;5051712;28;19917;-87
2023/01/21 08:10:16;;;;;;;;;;;-3.00;84.10;;;;;;5052632;28;20362;-87
2023/01/21 08:12:42;;;;;;;;;;;-3.10;78.90;;;;;;5050136;28;19922;-86
2023/01/21 08:15:08;;;;;;;;;;;-3.10;77.90;;;;;;5045611;28;19904;-87
2023/01/21 08:17:38;;;;;;;;;;;-3.10;76.30;;;;;;5047803;28;20282;-86
2023/01/21 08:20:05;;;;;;;;;;;-3.10;73.00;;;;;;5047795;28;19905;-87
2023/01/21 08:22:31;;;;;;;;;;;-3.10;72.20;;;;;;5032426;28;20282;-86
2023/01/21 08:24:57;;;;;;;;;;;-3.10;65.50;;;;;;5039226;28;19951;-87
2023/01/21 08:27:22;;;;;;;;;;;-3.20;64.20;;;;;;5043659;28;20415;-87
2023/01/21 08:29:48;;;;;;;;;;;-3.20;65.60;;;;;;5050219;28;20007;-86
2023/01/21 08:32:14;;;;;;;;;;;-3.10;66.00;;;;;;5051417;28;19909;-86
2023/01/21 08:34:40;;;;;;;;;;;-3.10;64.50;;;;;;5049711;28;19916;-86
2023/01/21 08:37:06;;;;;;;;;;;-3.00;62.00;;;;;;5048765;28;19915;-85
2023/01/21 08:39:32;;;;;;;;;;;-3.00;58.30;;;;;;5051319;28;19967;-86
2023/01/21 08:41:58;;;;;;;;;;;-2.90;57.70;;;;;;5051776;28;19952;-86
2023/01/21 08:44:24;;;;;;;;;;;-2.80;55.90;;;;;;5041579;28;20416;-86
2023/01/21 08:46:50;;;;;;;;;;;-2.80;52.30;;;;;;5031051;28;19976;-85
2023/01/21 08:49:16;;;;;;;;;;;-2.60;49.90;;;;;;5045481;28;19948;-87
2023/01/21 08:51:42;;;;;;;;;;;-2.50;44.40;;;;;;5051959;28;19956;-78
2023/01/21 08:54:08;;;;;;;;;;;-2.40;36.30;;;;;;5055174;28;20449;-86
2023/01/21 08:56:34;;;;;;;;;;;-2.40;30.20;;;;;;5053488;28;19986;-86
2023/01/21 08:59:01;;;;;;;;;;;-2.30;22.30;;;;;;5054990;28;19927;-85
2023/01/21 09:01:28;;;;;;;;;;;-2.20;17.40;;;;;;5054438;28;20373;-87
2023/01/21 09:03:54;;;;;;;;;;;-2.20;15.80;;;;;;5054855;28;19919;-84
2023/01/21 09:06:21;;;;;;;;;;;-2.20;12.40;;;;;;5052542;28;19915;-76
2023/01/21 09:08:47;;;;;;;;;;;-2.10;10.40;;;;;;5054440;28;19913;-85
2023/01/21 09:11:15;;;;;;;;;;;-2.10;8.10;;;;;;5054832;28;19942;-81
2023/01/21 09:13:43;;;;;;;;;;;-2.20;8.00;;;;;;5047040;28;20351;-86
2023/01/21 09:16:11;;;;;;;;;;;-2.20;9.30;;;;;;5051663;28;19931;-85
2023/01/21 09:18:37;;;;;;;;;;;-2.20;11.00;;;;;;5053989;28;20341;-85
2023/01/21 09:21:03;;;;;;;;;;;-2.20;12.60;;;;;;5054702;28;19944;-85
2023/01/21 09:23:33;;;;;;;;;;;-2.20;14.40;;;;;;5054487;28;19912;-86
2023/01/21 09:26:00;;;;;;;;;;;-2.10;14.60;;;;;;5048803;28;20249;-84
2023/01/21 09:28:26;;;;;;;;;;;-2.10;17.20;;;;;;5052908;28;19976;-83
2023/01/21 09:30:57;;;;;;;;;;;-2.10;12.00;;;;;;5056675;28;20019;-86
2023/01/21 09:33:23;;;;;;;;;;;-1.90;11.70;;;;;;5054853;28;19909;-86
2023/01/21 09:35:56;;;;;;;;;;;-2.00;10.50;;;;;;5056931;28;19909;-86
2023/01/21 09:38:23;;;;;;;;;;;-2.00;12.60;;;;;;5051966;28;19916;-85
2023/01/21 09:40:49;;;;;;;;;;;-1.80;12.20;;;;;;5050317;28;20255;-83
2023/01/21 09:43:21;;;;;;;;;;;-1.70;10.80;;;;;;5054879;28;19909;-80
2023/01/21 09:45:48;;;;;;;;;;;-1.70;8.50;;;;;;5055568;28;19908;-88
2023/01/21 09:48:25;;;;;;;;;;;-1.60;6.80;;;;;;5057606;28;19916;-80
2023/01/21 09:50:52;;;;;;;;;;;-1.50;7.10;;;;;;5061509;28;20370;-88
2023/01/21 09:53:34;;;;;;;;;;;-1.60;1.00;;;;;;5060831;28;20358;-81
2023/01/21 09:56:01;;;;;;;;;;;-1.70;1.00;;;;;;5066867;28;19915;-89
2023/01/21 09:58:45;;;;;;;;;;;-1.70;1.80;;;;;;5048436;28;19905;-82
2023/01/21 10:01:15;;;;;;;;;;;-1.70;1.00;;;;;;5050132;28;19928;-89
2023/01/21 10:03:52;;;;;;;;;;;-1.70;3.60;;;;;;5054453;28;19916;-89
2023/01/21 10:06:26;;;;;;;;;;;-1.70;6.50;;;;;;5043038;28;19913;-90
2023/01/21 10:08:52;;;;;;;;;;;-1.60;6.20;;;;;;5048453;28;19913;-90
2023/01/21 10:11:21;;;;;;;;;;;-1.40;9.50;;;;;;5045572;28;19927;-84
2023/01/21 10:14:06;;;;;;;;;;;-1.40;1.30;;;;;;5055098;28;19905;-88
2023/01/21 10:16:38;;;;;;;;;;;-1.50;1.00;;;;;;5053149;28;19916;-91
2023/01/21 10:19:05;;;;;;;;;;;-1.60;1.00;;;;;;5049036;28;19909;-90
2023/01/21 10:21:51;;;;;;;;;;;-1.40;2.30;;;;;;5052053;28;19905;-91
2023/01/21 10:24:20;;;;;;;;;;;-1.40;1.00;;;;;;5049422;28;19916;-82
2023/01/21 10:26:47;;;;;;;;;;;-1.30;1.00;;;;;;5053783;28;19909;-89
2023/01/21 10:29:16;;;;;;;;;;;-1.30;1.00;;;;;;5075542;28;19904;-87
2023/01/21 10:31:43;;;;;;;;;;;-1.30;1.00;;;;;;5070760;28;19900;-89
2023/01/21 10:34:11;;;;;;;;;;;-1.40;1.00;;;;;;5077106;28;19903;-89
2023/01/21 10:36:47;;;;;;;;;;;-1.40;1.00;;;;;;5075256;28;19901;-86
2023/01/21 10:39:15;;;;;;;;;;;-1.30;1.00;;;;;;5077236;28;19907;-87
2023/01/21 10:42:00;;;;;;;;;;;-1.20;1.00;;;;;;5068734;28;19921;-90
2023/01/21 10:44:35;;;;;;;;;;;-1.10;1.00;;;;;;5054477;28;19909;-90
2023/01/21 10:47:19;;;;;;;;;;;-1.00;1.00;;;;;;5054914;28;19909;-80
2023/01/21 10:49:53;;;;;;;;;;;-1.00;1.00;;;;;;5051550;28;20354;-81
2023/01/21 10:52:22;;;;;;;;;;;-1.10;1.00;;;;;;5052658;28;19909;-82
2023/01/21 10:55:01;;;;;;;;;;;-1.10;1.00;;;;;;5058032;28;19931;-87
2023/01/21 10:57:50;;;;;;;;;;;-1.10;1.00;;;;;;5053389;28;19909;-90
2023/01/21 11:00:19;;;;;;;;;;;-1.20;1.00;;;;;;4999542;28;19921;-91
2023/01/21 11:02:49;;;;;;;;;;;-1.10;1.00;;;;;;5036331;28;19916;-82
2023/01/21 11:05:15;;;;;;;;;;;-1.00;1.00;;;;;;5052699;28;19908;-87
2023/01/21 11:07:42;;;;;;;;;;;-1.10;1.00;;;;;;5052139;28;19912;-92
2023/01/21 11:10:08;;;;;;;;;;;-1.10;1.00;;;;;;5049323;28;20361;-91
2023/01/21 11:12:34;;;;;;;;;;;-1.10;1.00;;;;;;5053718;28;19919;-92
2023/01/21 11:15:01;;;;;;;;;;;-1.20;1.00;;;;;;5054599;28;19909;-84
2023/01/21 11:17:32;;;;;;;;;;;-1.10;1.00;;;;;;5048844;28;19909;-92
2023/01/21 11:19:59;;;;;;;;;;;-1.00;1.00;;;;;;5056847;28;19915;-93
2023/01/21 11:22:27;;;;;;;;;;;-1.00;1.00;;;;;;5053189;28;19908;-90
2023/01/21 11:24:53;;;;;;;;;;;-1.00;1.00;;;;;;5045147;28;19912;-94
2023/01/21 11:27:38;;;;;;;;;;;-1.00;1.00;;;;;;5035047;28;19924;-80
2023/01/21 11:30:05;;;;;;;;;;;-0.90;1.00;;;;;;5060806;28;19921;-88
2023/01/21 11:32:31;;;;;;;;;;;-0.80;1.00;;;;;;5063965;28;19905;-87
2023/01/21 11:35:06;;;;;;;;;;;-0.80;1.00;;;;;;5054174;28;20286;-83
2023/01/21 11:37:32;;;;;;;;;;;-0.70;1.00;;;;;;5033395;28;19909;-86
2023/01/21 11:40:10;;;;;;;;;;;-0.50;1.00;;;;;;5048067;28;19912;-83
2023/01/21 11:42:50;;;;;;;;;;;-0.50;1.00;;;;;;5050681;28;19915;-84
2023/01/21 11:45:31;;;;;;;;;;;-0.50;1.00;;;;;;5051579;28;19916;-84
2023/01/21 11:47:58;;;;;;;;;;;-0.40;1.00;;;;;;5051032;28;19913;-83
2023/01/21 11:50:33;;;;;;;;;;;-0.40;1.00;;;;;;5066954;28;20012;-81
2023/01/21 11:53:05;;;;;;;;;;;-0.40;1.00;;;;;;5051560;28;19908;-86
2023/01/21 11:55:33;;;;;;;;;;;-0.40;1.00;;;;;;5058536;28;19909;-85
2023/01/21 11:57:59;;;;;;;;;;;-0.50;1.00;;;;;;5054757;28;19913;-82
2023/01/21 12:00:28;;;;;;;;;;;-0.60;1.00;;;;;;5052007;28;19921;-80
2023/01/21 12:02:56;;;;;;;;;;;-0.60;1.00;;;;;;5051501;28;19916;-83
2023/01/21 12:05:31;;;;;;;;;;;-0.50;1.00;;;;;;5051438;28;19908;-79
2023/01/21 12:07:57;;;;;;;;;;;-0.60;1.00;;;;;;5051178;28;19920;-80
2023/01/21 12:10:26;;;;;;;;;;;-0.40;2.70;;;;;;5050458;28;19916;-81
2023/01/21 12:13:11;;;;;;;;;;;-0.50;1.00;;;;;;5046642;28;19909;-81
2023/01/21 12:15:40;;;;;;;;;;;-0.50;1.80;;;;;;5058229;28;19908;-80
2023/01/21 12:18:12;;;;;;;;;;;-0.40;1.80;;;;;;5050751;28;19908;-82
2023/01/21 12:21:02;;;;;;;;;;;-0.40;1.00;;;;;;5064256;28;19916;-81
2023/01/21 12:23:28;;;;;;;;;;;-0.40;1.00;;;;;;5060338;28;19904;-81
2023/01/21 12:25:58;;;;;;;;;;;-0.40;1.00;;;;;;5070874;28;19912;-80
2023/01/21 12:28:24;;;;;;;;;;;-0.40;1.00;;;;;;5062400;28;19916;-78
2023/01/21 12:30:56;;;;;;;;;;;-0.30;1.00;;;;;;5060639;28;20428;-80
2023/01/21 12:33:28;;;;;;;;;;;-0.40;1.00;;;;;;5057075;28;19909;-79
2023/01/21 12:35:56;;;;;;;;;;;-0.40;1.00;;;;;;5056176;28;20373;-81
2023/01/21 12:38:29;;;;;;;;;;;-0.30;1.00;;;;;;5054720;28;20265;-79
2023/01/21 12:41:07;;;;;;;;;;;-0.30;1.00;;;;;;5055368;28;20361;-79
2023/01/21 12:43:39;;;;;;;;;;;-0.30;1.00;;;;;;5067423;28;20242;-84
2023/01/21 12:46:10;;;;;;;;;;;-0.40;1.00;;;;;;5072835;28;19935;-87
2023/01/21 12:48:39;;;;;;;;;;;-0.40;1.00;;;;;;5051767;28;19939;-86
2023/01/21 12:51:07;;;;;;;;;;;-0.40;1.00;;;;;;5057394;28;19913;-84
2023/01/21 12:53:49;;;;;;;;;;;-0.40;1.00;;;;;;5051398;28;19913;-79
2023/01/21 12:56:24;;;;;;;;;;;-0.40;1.00;;;;;;5054999;28;19909;-79
2023/01/21 12:58:50;;;;;;;;;;;-0.40;1.00;;;;;;5052788;28;20381;-79
2023/01/21 13:01:31;;;;;;;;;;;-0.40;1.00;;;;;;5053243;28;19921;-79
2023/01/21 13:04:02;;;;;;;;;;;-0.50;1.00;;;;;;5052932;28;19909;-79
2023/01/21 13:06:34;;;;;;;;;;;-0.40;1.00;;;;;;5053542;28;20338;-78
2023/01/21 13:09:09;;;;;;;;;;;-0.40;1.00;;;;;;5054281;28;20376;-79
2023/01/21 13:11:56;;;;;;;;;;;-0.40;1.00;;;;;;5055748;28;19913;-79
2023/01/21 13:14:22;;;;;;;;;;;-0.40;1.00;;;;;;5048357;28;19916;-79
2023/01/21 13:16:54;;;;;;;;;;;-0.30;1.00;;;;;;5033853;28;19913;-79
2023/01/21 13:19:20;;;;;;;;;;;-0.30;1.00;;;;;;5048421;28;20270;-77
2023/01/21 13:21:54;;;;;;;;;;;-0.30;1.00;;;;;;5053150;28;20483;-79
2023/01/21 13:24:43;;;;;;;;;;;-0.30;1.00;;;;;;5052492;28;19908;-79
2023/01/21 13:27:16;;;;;;;;;;;-0.30;1.00;;;;;;5054004;28;20242;-78
2023/01/21 13:30:06;;;;;;;;;;;-0.30;1.00;;;;;;5051395;28;19921;-78
2023/01/21 13:32:44;;;;;;;;;;;-0.30;1.00;;;;;;5047293;28;19928;-78
2023/01/21 13:35:16;;;;;;;;;;;-0.30;1.00;;;;;;5053301;28;19909;-79
2023/01/21 13:38:01;;;;;;;;;;;-0.30;1.00;;;;;;5052958;28;19909;-81
2023/01/21 13:40:36;;;;;;;;;;;-0.30;1.00;;;;;;5051423;28;19938;-79
2023/01/21 13:43:04;;;;;;;;;;;-0.30;1.00;;;;;;5052030;28;19912;-80
2023/01/21 13:45:56;;;;;;;;;;;-0.30;1.00;;;;;;5029938;28;19908;-79
2023/01/21 13:48:22;;;;;;;;;;;-0.30;1.00;;;;;;5041486;28;19913;-78
2023/01/21 13:50:57;;;;;;;;;;;-0.30;1.00;;;;;;5052848;28;19974;-80
2023/01/21 13:53:23;;;;;;;;;;;-0.30;1.00;;;;;;5052153;28;19919;-82
2023/01/21 13:55:54;;;;;;;;;;;-0.40;1.00;;;;;;5053509;28;19909;-81
2023/01/21 13:58:38;;;;;;;;;;;-0.40;1.00;;;;;;5053680;28;19916;-76
2023/01/21 14:01:08;;;;;;;;;;;-0.30;1.00;;;;;;5053180;28;19921;-79
2023/01/21 14:03:40;;;;;;;;;;;-0.40;1.00;;;;;;5040462;28;19909;-79
2023/01/21 14:06:06;;;;;;;;;;;-0.40;3.80;;;;;;5048358;28;19909;-80
2023/01/21 14:08:35;;;;;;;;;;;-0.40;1.60;;;;;;5050175;28;19912;-81
2023/01/21 14:11:08;;;;;;;;;;;-0.40;2.20;;;;;;5052639;28;19916;-78
2023/01/21 14:13:53;;;;;;;;;;;-0.30;1.50;;;;;;5044751;28;19912;-77
2023/01/21 14:16:25;;;;;;;;;;;-0.30;2.90;;;;;;5049574;28;19909;-78
2023/01/21 14:19:10;;;;;;;;;;;-0.30;1.00;;;;;;5049377;28;20350;-78
2023/01/21 14:21:42;;;;;;;;;;;-0.30;1.00;;;;;;5050176;28;19912;-77
2023/01/21 14:24:14;;;;;;;;;;;-0.20;1.00;;;;;;5047218;28;19924;-79
2023/01/21 14:26:46;;;;;;;;;;;-0.20;1.00;;;;;;5047086;28;19926;-77
2023/01/21 14:29:18;;;;;;;;;;;-0.10;2.20;;;;;;5052925;28;19912;-76
2023/01/21 14:31:49;;;;;;;;;;;-0.10;1.00;;;;;;5050393;28;19909;-77
2023/01/21 14:34:15;;;;;;;;;;;-0.10;1.00;;;;;;5046530;28;19908;-76
2023/01/21 14:36:47;;;;;;;;;;;-0.20;1.00;;;;;;5050229;28;19912;-77